createdAt,value
2018-07-28T00:00:51.507Z,0
2018-07-28T00:06:04.395Z,0
2018-07-28T00:11:17.201Z,0
2018-07-28T00:16:30.017Z,0
2018-07-28T00:26:55.789Z,0
2018-07-28T00:32:08.938Z,0
2018-07-28T00:37:21.468Z,0
2018-07-28T00:42:34.238Z,0
2018-07-28T00:47:46.977Z,0
2018-07-28T00:52:59.845Z,0
2018-07-28T00:58:12.675Z,0
2018-07-28T01:03:25.521Z,0
2018-07-28T01:08:38.301Z,0
2018-07-28T01:13:51.188Z,0
2018-07-28T01:19:03.985Z,0
2018-07-28T01:24:16.789Z,0
2018-07-28T01:29:29.648Z,0
2018-07-28T01:34:42.451Z,0
2018-07-28T01:39:55.358Z,0
2018-07-28T01:50:21.046Z,0
2018-07-28T01:55:33.794Z,0
2018-07-28T02:00:46.630Z,0
2018-07-28T02:05:59.509Z,0
2018-07-28T02:11:12.301Z,0
2018-07-28T02:16:25.091Z,0
2018-07-28T02:21:37.997Z,0
2018-07-28T02:26:51.028Z,0
2018-07-28T02:32:03.615Z,0
2018-07-28T02:37:16.483Z,0
2018-07-28T02:42:29.272Z,0
2018-07-28T02:47:42.085Z,0
2018-07-28T02:52:54.939Z,0
2018-07-28T02:58:08.236Z,0
2018-07-28T03:03:20.577Z,0
2018-07-28T03:08:33.398Z,0
2018-07-28T03:19:01.424Z,0
2018-07-28T03:24:11.939Z,0
2018-07-28T03:29:24.842Z,0
2018-07-28T03:34:37.591Z,0
2018-07-28T03:39:50.548Z,0
2018-07-28T03:45:03.260Z,0
2018-07-28T03:55:28.915Z,0
2018-07-28T04:00:41.734Z,0
2018-07-28T04:05:54.541Z,0
2018-07-28T04:11:07.460Z,0
2018-07-28T04:16:20.284Z,0
2018-07-28T04:21:33.057Z,0
2018-07-28T04:26:48.474Z,4
2018-07-28T04:31:58.745Z,4
2018-07-28T04:37:11.615Z,4
2018-07-28T04:42:24.374Z,4
2018-07-28T04:47:37.294Z,4
2018-07-28T04:52:50.116Z,4
2018-07-28T04:58:02.910Z,0
2018-07-28T05:03:15.689Z,4
2018-07-28T05:08:28.965Z,4
2018-07-28T05:13:41.369Z,4
2018-07-28T05:18:54.259Z,4
2018-07-28T05:29:19.839Z,4
2018-07-28T05:34:32.680Z,4
2018-07-28T05:39:45.506Z,4
2018-07-28T05:44:58.460Z,8
2018-07-28T05:55:24.034Z,12
2018-07-28T06:00:36.829Z,8
2018-07-28T06:05:49.645Z,12
2018-07-28T06:11:02.461Z,12
2018-07-28T06:16:15.644Z,12
2018-07-28T06:21:28.128Z,12
2018-07-28T06:26:41.068Z,16
2018-07-28T06:31:53.776Z,12
2018-07-28T06:37:06.659Z,12
2018-07-28T06:47:32.285Z,12
2018-07-28T06:52:45.133Z,16
2018-07-28T06:57:58.000Z,16
2018-07-28T07:03:10.771Z,28
2018-07-28T07:08:23.654Z,16
2018-07-28T07:13:36.438Z,12
2018-07-28T07:18:49.338Z,16
2018-07-28T07:24:02.270Z,12
2018-07-28T07:29:14.962Z,8
2018-07-28T07:34:27.726Z,16
2018-07-28T07:44:53.509Z,16
2018-07-28T07:50:06.234Z,20
2018-07-28T07:55:19.048Z,16
2018-07-28T08:00:31.890Z,24
2018-07-28T08:05:44.753Z,24
2018-07-28T08:10:57.548Z,20
2018-07-28T08:16:10.510Z,16
2018-07-28T08:26:36.017Z,16
2018-07-28T08:37:01.727Z,12
2018-07-28T08:42:14.508Z,8
2018-07-28T08:47:27.499Z,8
2018-07-28T08:52:40.209Z,4
2018-07-28T08:57:53.043Z,4
2018-07-28T09:03:05.875Z,8
2018-07-28T09:08:18.654Z,4
2018-07-28T09:13:31.768Z,8
2018-07-28T09:18:44.399Z,8
2018-07-28T09:29:10.008Z,8
2018-07-28T09:34:22.843Z,8
2018-07-28T09:39:35.661Z,12
2018-07-28T09:44:48.442Z,8
2018-07-28T09:50:02.379Z,4
2018-07-28T09:55:14.087Z,4
2018-07-28T10:00:27.183Z,8
2018-07-28T10:05:39.747Z,4
2018-07-28T10:10:52.643Z,8
2018-07-28T10:16:05.409Z,4
2018-07-28T10:21:18.241Z,4
2018-07-28T10:26:31.075Z,4
2018-07-28T10:31:43.992Z,4
2018-07-28T10:36:56.723Z,8
2018-07-28T10:42:09.550Z,8
2018-07-28T10:47:22.369Z,8
2018-07-28T10:52:35.335Z,12
2018-07-28T10:57:48.091Z,12
2018-07-28T11:03:00.889Z,16
2018-07-28T11:08:13.732Z,16
2018-07-28T11:13:26.525Z,16
2018-07-28T11:18:39.376Z,20
2018-07-28T11:23:52.202Z,4
2018-07-28T11:29:04.991Z,4
2018-07-28T11:34:17.926Z,4
2018-07-28T11:39:30.686Z,4
2018-07-28T11:44:43.499Z,8
2018-07-28T11:49:56.474Z,4
2018-07-28T11:55:09.135Z,16
2018-07-28T12:05:34.823Z,12
2018-07-28T12:16:00.467Z,8
2018-07-28T12:21:13.307Z,8
2018-07-28T12:26:26.201Z,12
2018-07-28T12:31:38.970Z,12
2018-07-28T12:36:51.792Z,4
2018-07-28T12:42:04.585Z,8
2018-07-28T12:47:17.640Z,12
2018-07-28T12:52:30.339Z,12
2018-07-28T12:57:43.152Z,12
2018-07-28T13:02:56.037Z,12
2018-07-28T13:08:09.020Z,4
2018-07-28T13:18:34.498Z,8
2018-07-28T13:23:47.241Z,4
2018-07-28T13:29:00.248Z,12
2018-07-28T13:34:12.900Z,4
2018-07-28T13:39:25.821Z,4
2018-07-28T13:49:51.380Z,8
2018-07-28T13:55:04.235Z,4
2018-07-28T14:00:17.039Z,8
2018-07-28T14:10:42.677Z,12
2018-07-28T14:15:55.527Z,12
2018-07-28T14:21:08.611Z,8
2018-07-28T14:31:34.035Z,8
2018-07-28T14:36:46.815Z,4
2018-07-28T14:41:59.809Z,8
2018-07-28T14:47:12.492Z,8
2018-07-28T14:52:25.418Z,8
2018-07-28T14:57:38.366Z,8
2018-07-28T15:02:51.106Z,4
2018-07-28T15:08:03.901Z,8
2018-07-28T15:13:16.766Z,4
2018-07-28T15:18:29.513Z,8
2018-07-28T15:28:55.103Z,4
2018-07-28T15:34:08.014Z,8
2018-07-28T15:39:20.776Z,8
2018-07-28T15:44:33.678Z,4
2018-07-28T15:49:46.600Z,4
2018-07-28T15:54:59.325Z,4
2018-07-28T16:00:12.139Z,4
2018-07-28T16:05:24.970Z,4
2018-07-28T16:10:37.781Z,4
2018-07-28T16:15:50.631Z,8
2018-07-28T16:21:03.426Z,16
2018-07-28T16:26:16.274Z,20
2018-07-28T16:31:29.084Z,16
2018-07-28T16:36:41.937Z,12
2018-07-28T16:41:54.865Z,12
2018-07-28T16:47:07.584Z,16
2018-07-28T16:52:20.403Z,12
2018-07-28T16:57:33.336Z,12
2018-07-28T17:02:46.564Z,12
2018-07-28T17:07:58.898Z,20
2018-07-28T17:13:11.949Z,16
2018-07-28T17:18:24.549Z,12
2018-07-28T17:28:50.244Z,12
2018-07-28T17:34:03.058Z,12
2018-07-28T17:39:15.866Z,8
2018-07-28T17:44:28.781Z,12
2018-07-28T17:49:41.717Z,8
2018-07-28T17:54:54.362Z,8
2018-07-28T18:00:07.292Z,8
2018-07-28T18:05:20.100Z,8
2018-07-28T18:15:45.694Z,4
2018-07-28T18:20:58.520Z,4
2018-07-28T18:26:11.353Z,4
2018-07-28T18:31:24.193Z,0
2018-07-28T18:36:37.005Z,4
2018-07-28T18:41:49.864Z,4
2018-07-28T18:47:03.130Z,4
2018-07-28T18:52:15.640Z,4
2018-07-28T18:57:28.325Z,0
2018-07-28T19:02:41.151Z,4
2018-07-28T19:07:54.298Z,0
2018-07-28T19:13:06.801Z,0
2018-07-28T19:18:19.691Z,0
2018-07-28T19:23:32.539Z,0
2018-07-28T19:28:45.395Z,0
2018-07-28T19:33:58.137Z,0
2018-07-28T19:39:10.956Z,0
2018-07-28T19:44:23.800Z,0
2018-07-28T19:49:36.615Z,0
2018-07-28T19:54:49.453Z,0
2018-07-28T20:00:02.358Z,0
2018-07-28T20:05:15.298Z,0
2018-07-28T20:10:28.575Z,0
2018-07-28T20:15:40.810Z,0
2018-07-28T20:20:53.686Z,0
2018-07-28T20:26:06.461Z,0
2018-07-28T20:31:19.364Z,0
2018-07-28T20:36:32.253Z,0
2018-07-28T20:41:45.118Z,0
2018-07-28T20:46:57.770Z,0
2018-07-28T20:52:11.175Z,0
2018-07-28T21:02:36.255Z,0
2018-07-28T21:07:49.109Z,0
2018-07-28T21:13:02.045Z,0
2018-07-28T21:18:14.838Z,0
2018-07-28T21:23:27.585Z,0
2018-07-28T21:28:40.516Z,0
2018-07-28T21:33:53.233Z,0
2018-07-28T21:44:18.921Z,0
2018-07-28T21:49:31.765Z,0
2018-07-28T21:54:44.615Z,0
2018-07-28T21:59:57.432Z,0
2018-07-28T22:05:10.331Z,0
2018-07-28T22:10:23.125Z,0
2018-07-28T22:15:35.913Z,0
2018-07-28T22:20:48.730Z,0
2018-07-28T22:26:01.577Z,0
2018-07-28T22:31:14.413Z,0
2018-07-28T22:36:27.352Z,0
2018-07-28T22:41:40.091Z,0
2018-07-28T22:46:52.949Z,0
2018-07-28T22:52:05.686Z,0
2018-07-28T22:57:18.588Z,0
2018-07-28T23:02:31.487Z,0
2018-07-28T23:07:44.211Z,0
2018-07-28T23:12:57.043Z,0
2018-07-28T23:18:09.992Z,0
2018-07-28T23:23:22.678Z,0
2018-07-28T23:28:35.675Z,0
2018-07-28T23:33:48.344Z,0
2018-07-28T23:39:01.411Z,0
2018-07-28T23:44:14.170Z,0
2018-07-28T23:49:26.890Z,0
2018-07-28T23:54:39.689Z,0
2018-07-28T23:59:52.630Z,0
